ZGSZ

Shenzhen Bao'an International Airport

Shenzhen, China
TAF ZGSZ 230309Z 2306/2406 18004MPS 6000 FEW030 TX32/2306Z TN28/2322Z TEMPO 2306/2310 FEW030 FEW030CB
Issued Valid From Valid To
Sep-23 @ 03:09 UTC
(3 hours ago)
Sep-23 @ 06:00 UTC
(36 minutes ago)
Sep-24 @ 06:00 UTC
(in 23 hours)
to
to
TAF ZGSZ 230309Z 2306/2406 18004MPS 6000 FEW030 TX32/2306Z TN28/2322Z TEMPO 2306/2310 FEW030 FEW030CB
Issued Sep-23 @ 03:09 UTC
(3 hours ago)
Valid From Sep-23 @ 06:00 UTC
(36 minutes ago)
Valid To Sep-24 @ 06:00 UTC
(in 23 hours)
-
-